Tuesday, January 22, 2019, 4:39 PM EST
Back to Local

KRDG, Reading Regional Airport

Location: Reading, PA, United States Lat: 40.367
Local Time: 4:39 PM EST (21:39 GMT) Lon: -75.967
Time Zone: US/Eastern Elev: 344 ft

Show me the last for .
Show Coded

Time T Td Feel RH Dir Speed Gust Alt SLP Vis Weather Sky Remarks
2019-01-22 15:54 31 7 26 35 210° 5 - 30.59 30.62 10 CLR None
2019-01-22 14:54 29 5 - 35 - Calm - 30.60 30.63 10 CLR None
2019-01-22 13:54 27 6 - 40 - Calm - 30.62 30.65 10 CLR None
2019-01-22 12:54 25 5 21 41 320° 3 - 30.64 30.67 10 CLR 6-hr Precip Total (1pm): 0.00"
6-hr Min Temp (1pm): 9.0°F
6-hr Max Temp (1pm): 25.0°F
2019-01-22 11:54 22 5 14 47 260° 6 - 30.68 30.71 10 CLR None
2019-01-22 10:54 20 5 - 51 - Calm - 30.69 30.73 10 CLR 1-hr Precip Total: Trace
2019-01-22 09:54 17 4 7 55 310° 8 - 30.69 30.73 10 UP CLR 1-hr Precip Total: Trace
6-hr Precip Total (10am): 0.00"
2019-01-22 08:54 14 4 0 63 320° 12 - 30.68 30.72 10 CLR None
2019-01-22 07:54 12 4 0 69 250° 9 - 30.69 30.72 10 CLR None
2019-01-22 06:54 9 3 2 76 270° 3 - 30.64 30.68 10 CLR 6-hr Min Temp (7am): 9.0°F
6-hr Max Temp (7am): 12.0°F
2019-01-22 05:54 11 2 -2 66 310° 9 - 30.62 30.66 10 CLR None
2019-01-22 04:54 11 2 3 66 290° 5 - 30.62 30.65 10 CLR None
2019-01-22 03:54 12 2 -2 63 290° 12 - 30.61 30.64 10 CLR None
2019-01-22 02:54 11 2 -1 66 290° 8 - 30.56 30.60 10 CLR None
2019-01-22 01:54 12 1 -2 60 290° 12 - 30.53 30.56 10 CLR None
2019-01-22 00:54 12 0 0 57 300° 9 - 30.51 30.54 10 CLR 6-hr Min Temp (1am): 12.0°F
6-hr Max Temp (1am): 15.1°F
2019-01-21 23:54 13 0 -1 55 320° 12 - 30.51 30.54 10 CLR 24-hr Min Temp (12am): 6.1°F
24-hr Max Temp (12am): 18.0°F
2019-01-21 22:54 13 -2 -8 50 320° 17 29 30.50 30.53 10 CLR Peak wind: 35 mph (31 kts) from 320° at 10 min
Pressure rising rapidly
2019-01-21 21:54 13 -3 -8 48 310° 23 30 30.48 30.51 10 CLR Peak wind: 29 mph (26 kts) from 320° at 49 min
2019-01-21 20:54 14 -3 0 46 290° 12 - 30.45 30.49 10 CLR None
2019-01-21 19:54 14 -3 -7 46 310° 17 30 30.41 30.45 10 CLR Peak wind: 29 mph (26 kts) from 320° at 48 min
2019-01-21 18:54 15 -5 -5 39 320° 17 29 30.37 30.41 10 CLR Peak wind: 32 mph (28 kts) from 310° at 16 min
6-hr Min Temp (7pm): 15.1°F
6-hr Max Temp (7pm): 18.0°F
2019-01-21 17:54 15 -5 -4 39 310° 17 25 30.33 30.37 10 CLR Peak wind: 37 mph (33 kts) from 320° at 08 min
2019-01-21 16:54 16 -7 -6 34 320° 25 39 30.29 30.33 10 CLR Peak wind: 39 mph (34 kts) from 330° at 52 min

Support USWX by starting your Amazon purchase here.